Pagrindinis puslapis
METAR-TAF:

METAR-TAF

Oro uostai :

Chapecó, Santa Katarina, Brazilija

platuma: 27-08-02S, ilguma: 052-39-43W, Aukštis: 654 m

Dabartinis oras

Ataskaita buvo paskelbta 29 minutes, ne 19:00 UTC
Vėjas 12 kt iš Vakarų
Temperatūra 25°C
Drėgmė 65%
Slėgis 1011 hPa
Matomumas 10 km arba daugiau
Išsisklaidę debesys ne aukštis 2000 ft
Išsisklaidę debesys ne aukštis 8000 ft

METAR: SBCH 051900Z 26012KT 9999 SCT020 SCT080 25/18 Q1011

Laikas: 16:29 (19:29 UTC)


TAF: trūkstamas

Orai ataskaitas ir orų prognozės (METAR, TAF).

turimą stotys yra geltonos ir raudonos taškus žemėlapyje.

Perkelti pele per norėdami pamatyti stoties vardą.

Tada spustelėkite, norėdami matyti oro stebėjimo ir prognozės.

Norėdami pakeisti žemėlapį: spustelėkite ant žalios mygtukų su juodo kryžiaus žemyn,; žalią mygtuką su brūkšneliu, jei norite nutolinti; arba žalių rodyklių gretimoms žemėlapius.


METAR-TAF: